createdAt,value
2019-04-03T00:00:44.476Z,45.31
2019-04-03T00:03:13.020Z,45.36
2019-04-03T00:05:41.606Z,45.42
2019-04-03T00:08:10.269Z,45.57
2019-04-03T00:10:38.928Z,45.96
2019-04-03T00:13:10.462Z,46.02
2019-04-03T00:15:37.814Z,46.25
2019-04-03T00:18:06.396Z,46.34
2019-04-03T00:20:35.137Z,46.41
2019-04-03T00:23:03.708Z,46.63
2019-04-03T00:25:32.195Z,46.70
2019-04-03T00:28:00.778Z,46.87
2019-04-03T00:30:29.407Z,46.94
2019-04-03T00:32:58.210Z,47.04
2019-04-03T00:35:26.965Z,47.15
2019-04-03T00:37:55.526Z,47.23
2019-04-03T00:40:24.780Z,47.43
2019-04-03T00:42:54.609Z,47.48
2019-04-03T00:45:24.522Z,47.38
2019-04-03T00:47:55.275Z,47.76
2019-04-03T00:50:26.249Z,47.93
2019-04-03T00:52:57.061Z,48.13
2019-04-03T00:55:26.673Z,48.09
2019-04-03T00:57:56.508Z,48.05
2019-04-03T01:00:26.429Z,48.26
2019-04-03T01:02:58.250Z,48.25
2019-04-03T01:05:28.179Z,48.16
2019-04-03T01:07:59.072Z,48.32
2019-04-03T01:10:29.301Z,48.28
2019-04-03T01:12:56.986Z,48.04
2019-04-03T01:15:25.545Z,48.01
2019-04-03T01:17:54.133Z,48.19
2019-04-03T01:20:22.940Z,48.48
2019-04-03T01:22:51.681Z,48.93
2019-04-03T01:25:20.159Z,49.22
2019-04-03T01:27:48.981Z,49.35
2019-04-03T01:30:17.630Z,49.55
2019-04-03T01:32:46.819Z,49.45
2019-04-03T01:35:17.407Z,49.49
2019-04-03T01:37:46.165Z,49.92
2019-04-03T01:40:14.748Z,50.13
2019-04-03T01:42:43.354Z,50.38
2019-04-03T01:45:11.906Z,50.75
2019-04-03T01:47:40.466Z,50.99
2019-04-03T01:50:09.332Z,51.22
2019-04-03T01:52:37.890Z,51.57
2019-04-03T01:55:07.584Z,51.69
2019-04-03T01:57:36.699Z,51.76
2019-04-03T02:00:07.722Z,51.90
2019-04-03T02:02:38.782Z,51.92
2019-04-03T02:05:07.755Z,52.12
2019-04-03T02:07:36.379Z,52.34
2019-04-03T02:10:07.916Z,52.52
2019-04-03T02:12:36.410Z,52.70
2019-04-03T02:15:05.638Z,52.77
2019-04-03T02:17:34.390Z,52.74
2019-04-03T02:20:03.236Z,53.02
2019-04-03T02:22:31.743Z,53.17
2019-04-03T02:25:01.820Z,53.18
2019-04-03T02:27:33.046Z,53.30
2019-04-03T02:30:01.124Z,53.23
2019-04-03T02:32:29.612Z,53.37
2019-04-03T02:34:58.579Z,53.40
2019-04-03T02:37:27.503Z,53.69
2019-04-03T02:39:59.056Z,53.75
2019-04-03T02:42:26.398Z,53.76
2019-04-03T02:44:55.313Z,53.94
2019-04-03T02:47:24.008Z,53.98
2019-04-03T02:49:52.578Z,54.04
2019-04-03T02:52:24.071Z,54.13
2019-04-03T02:54:52.435Z,54.14
2019-04-03T02:57:20.939Z,54.25
2019-04-03T02:59:49.847Z,54.14
2019-04-03T03:02:18.856Z,54.33
2019-04-03T03:04:47.543Z,54.38
2019-04-03T03:07:16.512Z,54.48
2019-04-03T03:09:47.721Z,54.55
2019-04-03T03:12:16.860Z,54.58
2019-04-03T03:14:45.616Z,54.75
2019-04-03T03:17:14.530Z,54.66
2019-04-03T03:19:43.668Z,54.90
2019-04-03T03:22:14.670Z,54.88
2019-04-03T03:24:44.544Z,55.12
2019-04-03T03:27:13.276Z,54.95
2019-04-03T03:29:41.897Z,55.06
2019-04-03T03:32:18.784Z,55.17
2019-04-03T03:34:54.101Z,55.09
2019-04-03T03:37:12.914Z,55.10
2019-04-03T03:39:44.115Z,55.08
2019-04-03T03:42:14.046Z,55.29
2019-04-03T03:44:45.226Z,55.34
2019-04-03T03:47:13.816Z,55.43
2019-04-03T03:49:43.603Z,55.47
2019-04-03T03:52:13.801Z,55.52
2019-04-03T03:54:43.055Z,55.61
2019-04-03T03:57:12.144Z,55.73
2019-04-03T03:59:40.910Z,55.67
2019-04-03T04:02:09.510Z,55.79
2019-04-03T04:04:38.520Z,55.89
2019-04-03T04:07:07.212Z,55.88
2019-04-03T04:09:35.836Z,55.95
2019-04-03T04:12:06.719Z,55.94
2019-04-03T04:14:36.331Z,55.82
2019-04-03T04:17:08.435Z,55.77
2019-04-03T04:19:36.719Z,55.71
2019-04-03T04:22:05.396Z,55.67
2019-04-03T04:24:35.105Z,55.46
2019-04-03T04:27:04.243Z,55.19
2019-04-03T04:29:32.917Z,54.61
2019-04-03T04:32:01.583Z,54.18
2019-04-03T04:34:30.063Z,53.65
2019-04-03T04:36:59.075Z,53.21
2019-04-03T04:39:29.395Z,53.13
2019-04-03T04:41:58.050Z,52.53
2019-04-03T04:44:26.548Z,52.29
2019-04-03T04:46:55.183Z,51.46
2019-04-03T04:49:23.798Z,51.11
2019-04-03T04:51:52.570Z,50.19
2019-04-03T04:54:21.106Z,50.24
2019-04-03T04:56:49.734Z,49.34
2019-04-03T04:59:18.402Z,49.48
2019-04-03T05:01:48.773Z,49.19
2019-04-03T05:04:17.103Z,48.84
2019-04-03T05:06:45.776Z,47.96
2019-04-03T05:09:14.414Z,48.36
2019-04-03T05:11:42.996Z,48.69
2019-04-03T05:14:11.658Z,48.46
2019-04-03T05:16:40.314Z,48.43
2019-04-03T05:19:14.787Z,47.43
2019-04-03T05:21:39.251Z,46.67
2019-04-03T05:24:13.118Z,46.07
2019-04-03T05:26:38.357Z,45.14
2019-04-03T05:29:06.887Z,45.32
2019-04-03T05:31:36.915Z,44.33
2019-04-03T05:34:05.865Z,44.39
2019-04-03T05:36:34.506Z,43.81
2019-04-03T05:39:04.810Z,44.65
2019-04-03T05:41:33.554Z,44.73
2019-04-03T05:44:02.793Z,44.65
2019-04-03T05:46:31.391Z,43.19
2019-04-03T05:49:00.132Z,42.08
2019-04-03T05:51:29.738Z,40.42
2019-04-03T05:53:58.944Z,40.49
2019-04-03T05:56:27.570Z,40.06
2019-04-03T05:59:00.382Z,40.51
2019-04-03T06:01:26.870Z,40.56
2019-04-03T06:03:55.519Z,40.58
2019-04-03T06:06:24.352Z,40.80
2019-04-03T06:08:54.009Z,41.56
2019-04-03T06:11:23.274Z,41.20
2019-04-03T06:13:51.922Z,40.12
2019-04-03T06:16:23.407Z,39.75
2019-04-03T06:18:50.901Z,40.39
2019-04-03T06:21:19.639Z,39.56
2019-04-03T06:23:48.532Z,39.95
2019-04-03T06:26:17.487Z,38.55
2019-04-03T06:28:47.652Z,37.84
2019-04-03T06:31:16.404Z,38.20
2019-04-03T06:33:45.027Z,37.89
2019-04-03T06:36:16.861Z,38.12
2019-04-03T06:38:44.084Z,37.36
2019-04-03T06:41:12.794Z,36.14
2019-04-03T06:43:41.808Z,35.81
2019-04-03T06:46:10.427Z,36.35
2019-04-03T06:48:38.864Z,34.93
2019-04-03T06:51:07.541Z,36.81
2019-04-03T06:53:36.166Z,36.68
2019-04-03T06:56:07.820Z,37.21
2019-04-03T06:58:39.402Z,36.17
2019-04-03T07:01:05.746Z,36.52
2019-04-03T07:03:35.061Z,37.45
2019-04-03T07:06:04.411Z,37.91
2019-04-03T07:08:35.421Z,37.07
2019-04-03T07:11:03.439Z,35.98
2019-04-03T07:13:32.112Z,35.24
2019-04-03T07:16:00.624Z,34.84
2019-04-03T07:18:29.177Z,35.02
2019-04-03T07:20:57.857Z,35.71
2019-04-03T07:23:27.806Z,34.08
2019-04-03T07:25:56.847Z,34.22
2019-04-03T07:28:25.511Z,34.55
2019-04-03T07:30:54.487Z,34.13
2019-04-03T07:33:23.326Z,34.27
2019-04-03T07:35:51.872Z,35.13
2019-04-03T07:38:22.139Z,35.03
2019-04-03T07:40:52.010Z,34.33
2019-04-03T07:43:21.095Z,35.56
2019-04-03T07:45:49.587Z,34.62
2019-04-03T07:48:18.248Z,34.55
2019-04-03T07:50:47.032Z,33.98
2019-04-03T07:53:15.670Z,33.13
2019-04-03T07:55:44.424Z,33.48
2019-04-03T07:58:13.330Z,32.69
2019-04-03T08:00:42.127Z,32.10
2019-04-03T08:03:10.696Z,33.13
2019-04-03T08:05:39.360Z,31.24
2019-04-03T08:08:07.928Z,32.60
2019-04-03T08:10:37.822Z,31.26
2019-04-03T08:13:07.547Z,31.47
2019-04-03T08:15:36.402Z,32.29
2019-04-03T08:18:05.182Z,33.32
2019-04-03T08:20:33.999Z,32.62
2019-04-03T08:23:04.684Z,32.93
2019-04-03T08:25:33.247Z,33.21
2019-04-03T08:28:02.065Z,32.28
2019-04-03T08:30:30.703Z,32.37
2019-04-03T08:32:59.329Z,30.99
2019-04-03T08:35:28.005Z,31.30
2019-04-03T08:37:56.573Z,31.87
2019-04-03T08:40:25.219Z,31.68
2019-04-03T08:42:53.911Z,31.91
2019-04-03T08:45:22.790Z,31.90
2019-04-03T08:47:51.377Z,32.50
2019-04-03T08:50:20.053Z,32.61
2019-04-03T08:52:48.909Z,31.71
2019-04-03T08:55:17.584Z,32.29
2019-04-03T08:57:46.926Z,32.33
2019-04-03T09:00:16.279Z,31.72
2019-04-03T09:02:44.897Z,32.22
2019-04-03T09:05:14.704Z,31.87
2019-04-03T09:07:44.106Z,31.64
2019-04-03T09:10:13.525Z,32.11
2019-04-03T09:12:42.127Z,31.63
2019-04-03T09:15:11.325Z,31.53
2019-04-03T09:17:40.178Z,31.57
2019-04-03T09:20:12.548Z,31.72
2019-04-03T09:22:40.019Z,31.25
2019-04-03T09:25:09.722Z,31.50
2019-04-03T09:27:40.334Z,31.26
2019-04-03T09:30:11.317Z,32.61
2019-04-03T09:32:40.029Z,32.86
2019-04-03T09:35:09.305Z,32.08
2019-04-03T09:37:38.416Z,32.56
2019-04-03T09:40:08.262Z,32.19
2019-04-03T09:42:36.973Z,31.66
2019-04-03T09:45:08.298Z,32.39
2019-04-03T09:47:37.413Z,31.84
2019-04-03T09:50:08.198Z,31.88
2019-04-03T09:52:42.331Z,31.26
2019-04-03T09:55:07.643Z,32.32
2019-04-03T09:57:36.603Z,32.14
2019-04-03T10:00:10.580Z,32.05
2019-04-03T10:02:40.180Z,31.15
2019-04-03T10:05:09.031Z,31.23
2019-04-03T10:07:37.664Z,31.13
2019-04-03T10:10:08.029Z,30.75
2019-04-03T10:12:36.874Z,31.59
2019-04-03T10:15:07.858Z,31.74
2019-04-03T10:17:38.325Z,32.08
2019-04-03T10:20:10.101Z,31.93
2019-04-03T10:22:38.727Z,32.32
2019-04-03T10:25:10.787Z,31.73
2019-04-03T10:27:42.623Z,31.08
2019-04-03T10:30:12.745Z,31.38
2019-04-03T10:32:41.479Z,32.03
2019-04-03T10:35:10.428Z,32.11
2019-04-03T10:37:39.075Z,31.60
2019-04-03T10:40:10.288Z,30.77
2019-04-03T10:42:39.123Z,30.99
2019-04-03T10:45:09.216Z,31.60
2019-04-03T10:47:42.982Z,31.63
2019-04-03T10:50:09.298Z,31.51
2019-04-03T10:52:38.222Z,31.48
2019-04-03T10:55:08.396Z,31.47
2019-04-03T10:57:37.239Z,31.67
2019-04-03T11:00:08.779Z,31.33
2019-04-03T11:02:37.616Z,31.24
2019-04-03T11:05:08.726Z,31.68
2019-04-03T11:07:37.896Z,31.26
2019-04-03T11:10:09.902Z,30.72
2019-04-03T11:12:38.590Z,30.90
2019-04-03T11:15:11.556Z,31.17
2019-04-03T11:17:39.675Z,30.68
2019-04-03T11:20:10.784Z,31.37
2019-04-03T11:22:42.137Z,30.96
2019-04-03T11:25:14.021Z,31.74
2019-04-03T11:27:43.650Z,31.51
2019-04-03T11:30:17.367Z,31.30
2019-04-03T11:32:45.185Z,31.20
2019-04-03T11:35:15.597Z,31.25
2019-04-03T11:37:44.232Z,31.09
2019-04-03T11:40:17.310Z,30.74
2019-04-03T11:42:44.572Z,30.89
2019-04-03T11:45:14.971Z,31.10
2019-04-03T11:47:46.180Z,31.03
2019-04-03T11:50:14.903Z,31.03
2019-04-03T11:52:43.575Z,31.56
2019-04-03T11:55:12.549Z,31.10
2019-04-03T11:57:41.215Z,31.11
2019-04-03T12:00:14.371Z,31.06
2019-04-03T12:02:44.356Z,31.10
2019-04-03T12:05:17.373Z,31.02
2019-04-03T12:07:45.742Z,31.17
2019-04-03T12:10:14.871Z,30.36
2019-04-03T12:12:43.791Z,30.86
2019-04-03T12:15:16.087Z,30.87
2019-04-03T12:17:43.403Z,30.50
2019-04-03T12:20:15.313Z,31.06
2019-04-03T12:22:43.226Z,31.53
2019-04-03T12:25:12.235Z,31.85
2019-04-03T12:27:40.865Z,31.95
2019-04-03T12:30:10.405Z,31.98
2019-04-03T12:32:43.569Z,31.88
2019-04-03T12:35:11.007Z,32.24
2019-04-03T12:37:39.962Z,31.98
2019-04-03T12:40:10.396Z,32.10
2019-04-03T12:42:38.955Z,32.14
2019-04-03T12:45:08.546Z,31.90
2019-04-03T12:47:37.238Z,31.51
2019-04-03T12:50:07.692Z,31.86
2019-04-03T12:52:36.599Z,32.08
2019-04-03T12:55:08.639Z,32.01
2019-04-03T12:57:39.270Z,31.78
2019-04-03T13:00:11.449Z,31.25
2019-04-03T13:02:40.485Z,31.57
2019-04-03T13:05:09.888Z,32.06
2019-04-03T13:07:38.526Z,31.36
2019-04-03T13:10:10.088Z,31.56
2019-04-03T13:12:39.202Z,31.86
2019-04-03T13:15:12.547Z,32.17
2019-04-03T13:17:43.469Z,32.64
2019-04-03T13:20:12.016Z,32.81
2019-04-03T13:22:42.517Z,33.11
2019-04-03T13:25:11.857Z,32.79
2019-04-03T13:27:40.751Z,32.36
2019-04-03T13:30:12.823Z,32.52
2019-04-03T13:32:41.860Z,32.33
2019-04-03T13:35:10.731Z,32.53
2019-04-03T13:37:39.710Z,32.05
2019-04-03T13:40:09.285Z,32.29
2019-04-03T13:42:38.002Z,32.24
2019-04-03T13:45:09.339Z,32.45
2019-04-03T13:47:41.031Z,32.59
2019-04-03T13:50:09.935Z,32.83
2019-04-03T13:52:42.909Z,32.54
2019-04-03T13:55:09.756Z,33.23
2019-04-03T13:57:38.716Z,33.33
2019-04-03T14:00:18.156Z,33.49
2019-04-03T14:02:38.756Z,34.06
2019-04-03T14:05:08.828Z,33.53
2019-04-03T14:07:40.367Z,33.77
2019-04-03T14:10:09.892Z,33.48
2019-04-03T14:12:42.986Z,33.94
2019-04-03T14:15:09.094Z,33.63
2019-04-03T14:17:38.879Z,33.48
2019-04-03T14:20:09.110Z,33.63
2019-04-03T14:22:37.736Z,33.09
2019-04-03T14:25:17.964Z,33.15
2019-04-03T14:27:38.504Z,33.32
2019-04-03T14:30:11.147Z,33.55
2019-04-03T14:32:39.341Z,33.83
2019-04-03T14:35:34.166Z,34.11
2019-04-03T14:37:39.142Z,34.05
2019-04-03T14:40:11.121Z,34.10
2019-04-03T14:42:38.871Z,34.10
2019-04-03T14:45:08.280Z,33.90
2019-04-03T14:47:36.936Z,33.96
2019-04-03T14:50:07.344Z,34.14
2019-04-03T14:52:36.342Z,34.05
2019-04-03T14:55:17.211Z,33.92
2019-04-03T14:57:37.238Z,33.63
2019-04-03T15:00:22.993Z,34.04
2019-04-03T15:02:40.305Z,34.00
2019-04-03T15:05:09.338Z,33.68
2019-04-03T15:07:37.939Z,32.98
2019-04-03T15:10:07.435Z,33.19
2019-04-03T15:12:38.608Z,32.78
2019-04-03T15:15:06.983Z,32.78
2019-04-03T15:17:37.195Z,32.73
2019-04-03T15:20:08.384Z,32.43
2019-04-03T15:22:37.320Z,32.75
2019-04-03T15:25:06.444Z,32.68
2019-04-03T15:27:35.022Z,33.22
2019-04-03T15:30:08.817Z,33.07
2019-04-03T15:32:35.733Z,33.28
2019-04-03T15:35:05.573Z,33.53
2019-04-03T15:37:34.810Z,33.72
2019-04-03T15:40:03.849Z,33.66
2019-04-03T15:42:32.499Z,33.76
2019-04-03T15:45:01.169Z,33.89
2019-04-03T15:47:36.554Z,34.13
2019-04-03T15:50:00.454Z,34.27
2019-04-03T15:52:29.399Z,34.53
2019-04-03T15:54:58.474Z,34.69
2019-04-03T15:57:26.972Z,34.89
2019-04-03T15:59:55.514Z,35.11
2019-04-03T16:02:24.075Z,35.09
2019-04-03T16:04:52.751Z,35.15
2019-04-03T16:07:21.660Z,35.05
2019-04-03T16:09:51.382Z,35.05
2019-04-03T16:12:20.483Z,35.04
2019-04-03T16:14:51.185Z,35.29
2019-04-03T16:17:20.029Z,35.29
2019-04-03T16:19:48.701Z,35.38
2019-04-03T16:22:17.283Z,35.54
2019-04-03T16:24:45.915Z,35.77
2019-04-03T16:27:14.994Z,35.69
2019-04-03T16:29:43.787Z,35.89
2019-04-03T16:32:12.764Z,35.91
2019-04-03T16:34:42.657Z,36.32
2019-04-03T16:37:11.663Z,36.40
2019-04-03T16:39:40.340Z,36.55
2019-04-03T16:42:08.953Z,36.78
2019-04-03T16:44:37.985Z,36.89
2019-04-03T16:47:06.774Z,37.75
2019-04-03T16:49:35.806Z,37.62
2019-04-03T16:52:05.780Z,37.54
2019-04-03T16:54:34.710Z,37.61
2019-04-03T16:57:03.709Z,37.73
2019-04-03T16:59:35.467Z,37.86
2019-04-03T17:02:03.024Z,38.15
2019-04-03T17:04:33.041Z,38.30
2019-04-03T17:07:02.047Z,38.53
2019-04-03T17:09:32.815Z,38.74
2019-04-03T17:12:01.073Z,38.83
2019-04-03T17:14:29.990Z,38.98
2019-04-03T17:16:58.619Z,39.00
2019-04-03T17:19:27.198Z,38.99
2019-04-03T17:21:56.035Z,39.18
2019-04-03T17:24:24.710Z,39.09
2019-04-03T17:26:57.405Z,38.83
2019-04-03T17:29:23.653Z,38.78
2019-04-03T17:31:52.145Z,38.75
2019-04-03T17:34:21.176Z,38.66
2019-04-03T17:36:52.341Z,38.77
2019-04-03T17:39:20.219Z,38.63
2019-04-03T17:41:48.791Z,38.55
2019-04-03T17:44:17.461Z,38.55
2019-04-03T17:46:48.743Z,38.54
2019-04-03T17:49:16.376Z,38.69
2019-04-03T17:51:45.128Z,38.78
2019-04-03T17:54:13.964Z,38.84
2019-04-03T17:56:43.088Z,38.86
2019-04-03T17:59:12.251Z,38.87
2019-04-03T18:01:40.816Z,38.98
2019-04-03T18:04:09.497Z,39.02
2019-04-03T18:06:38.154Z,38.99
2019-04-03T18:09:08.991Z,39.09
2019-04-03T18:11:37.640Z,39.31
2019-04-03T18:14:06.335Z,39.51
2019-04-03T18:16:34.952Z,39.65
2019-04-03T18:19:04.924Z,39.72
2019-04-03T18:21:34.068Z,39.83
2019-04-03T18:24:02.709Z,39.85
2019-04-03T18:26:31.339Z,39.98
2019-04-03T18:28:59.952Z,40.08
2019-04-03T18:31:28.578Z,40.21
2019-04-03T18:33:57.068Z,40.29
2019-04-03T18:36:28.386Z,40.35
2019-04-03T18:38:56.012Z,40.50
2019-04-03T18:41:24.646Z,40.58
2019-04-03T18:43:54.441Z,40.71
2019-04-03T18:46:32.002Z,40.75
2019-04-03T18:48:58.892Z,40.82
2019-04-03T18:51:24.276Z,40.96
2019-04-03T18:53:52.790Z,41.03
2019-04-03T18:56:21.410Z,41.01
2019-04-03T18:58:50.032Z,41.22
2019-04-03T19:01:18.906Z,41.25
2019-04-03T19:03:47.606Z,41.37
2019-04-03T19:06:16.166Z,41.39
2019-04-03T19:08:44.794Z,41.31
2019-04-03T19:11:13.382Z,41.28
2019-04-03T19:13:44.474Z,41.21
2019-04-03T19:16:15.433Z,41.11
2019-04-03T19:18:42.952Z,41.00
2019-04-03T19:21:23.701Z,41.15
2019-04-03T19:23:49.677Z,41.04
2019-04-03T19:26:12.259Z,41.11
2019-04-03T19:28:40.756Z,41.05
2019-04-03T19:31:09.364Z,41.05
2019-04-03T19:33:38.333Z,40.97
2019-04-03T19:36:06.986Z,41.16
2019-04-03T19:38:35.886Z,41.09
2019-04-03T19:41:05.141Z,41.16
2019-04-03T19:43:33.778Z,41.19
2019-04-03T19:46:02.435Z,41.27
2019-04-03T19:48:31.017Z,41.29
2019-04-03T19:51:02.691Z,41.22
2019-04-03T19:53:29.921Z,41.23
2019-04-03T19:55:58.515Z,41.37
2019-04-03T19:58:29.131Z,41.20
2019-04-03T20:00:57.505Z,41.25
2019-04-03T20:03:26.304Z,41.28
2019-04-03T20:05:55.310Z,41.46
2019-04-03T20:08:24.047Z,41.31
2019-04-03T20:10:52.717Z,41.35
2019-04-03T20:13:21.274Z,41.33
2019-04-03T20:15:49.775Z,41.22
2019-04-03T20:18:18.435Z,41.27
2019-04-03T20:20:47.176Z,41.58
2019-04-03T20:23:15.728Z,41.35
2019-04-03T20:25:45.911Z,41.11
2019-04-03T20:28:14.878Z,41.21
2019-04-03T20:30:43.581Z,41.05
2019-04-03T20:33:12.295Z,40.98
2019-04-03T20:35:40.886Z,41.18
2019-04-03T20:38:09.373Z,41.24
2019-04-03T20:40:39.837Z,41.47
2019-04-03T20:43:11.199Z,41.42
2019-04-03T20:45:38.871Z,41.18
2019-04-03T20:48:07.404Z,41.08
2019-04-03T20:50:38.133Z,41.19
2019-04-03T20:53:06.388Z,41.35
2019-04-03T20:55:35.253Z,41.36
2019-04-03T20:58:06.783Z,41.12
2019-04-03T21:00:35.487Z,41.42
2019-04-03T21:03:04.154Z,42.03
2019-04-03T21:05:32.787Z,41.60
2019-04-03T21:08:01.280Z,41.73
2019-04-03T21:10:31.430Z,42.23
2019-04-03T21:13:00.250Z,42.34
2019-04-03T21:15:28.807Z,42.32
2019-04-03T21:17:57.474Z,42.07
2019-04-03T21:20:26.109Z,41.93
2019-04-03T21:22:54.732Z,41.70
2019-04-03T21:25:23.375Z,41.52
2019-04-03T21:27:51.998Z,41.23
2019-04-03T21:30:23.696Z,41.07
2019-04-03T21:32:50.886Z,41.05
2019-04-03T21:35:19.435Z,40.91
2019-04-03T21:37:48.063Z,41.01
2019-04-03T21:40:16.909Z,41.02
2019-04-03T21:42:45.404Z,41.09
2019-04-03T21:45:14.132Z,41.11
2019-04-03T21:47:43.292Z,41.25
2019-04-03T21:50:12.287Z,41.44
2019-04-03T21:52:40.913Z,41.40
2019-04-03T21:55:09.977Z,41.59
2019-04-03T21:57:38.718Z,41.50
2019-04-03T22:00:13.220Z,41.71
2019-04-03T22:02:40.712Z,42.08
2019-04-03T22:05:09.644Z,42.26
2019-04-03T22:07:38.315Z,42.23
2019-04-03T22:10:09.026Z,42.64
2019-04-03T22:12:37.659Z,43.12
2019-04-03T22:15:07.744Z,43.57
2019-04-03T22:17:36.364Z,43.98
2019-04-03T22:20:05.889Z,44.04
2019-04-03T22:22:34.564Z,44.37
2019-04-03T22:25:03.406Z,44.77
2019-04-03T22:27:31.896Z,45.08
2019-04-03T22:30:00.517Z,45.39
2019-04-03T22:32:29.233Z,45.47
2019-04-03T22:35:00.565Z,45.54
2019-04-03T22:37:28.156Z,45.94
2019-04-03T22:39:56.820Z,46.22
2019-04-03T22:42:25.391Z,46.44
2019-04-03T22:44:53.868Z,46.49
2019-04-03T22:47:23.061Z,46.29
2019-04-03T22:49:53.148Z,46.55
2019-04-03T22:52:21.631Z,46.93
2019-04-03T22:54:50.163Z,46.92
2019-04-03T22:57:19.779Z,47.13
2019-04-03T22:59:48.797Z,47.55
2019-04-03T23:02:17.326Z,47.46
2019-04-03T23:04:46.390Z,47.72
2019-04-03T23:07:15.175Z,47.82
2019-04-03T23:09:43.843Z,47.80
2019-04-03T23:12:12.467Z,47.74
2019-04-03T23:14:41.092Z,47.85
2019-04-03T23:17:09.755Z,47.96
2019-04-03T23:19:38.377Z,48.07
2019-04-03T23:22:07.026Z,48.26
2019-04-03T23:24:35.717Z,48.29
2019-04-03T23:27:04.345Z,48.36
2019-04-03T23:29:35.886Z,48.40
2019-04-03T23:32:03.429Z,48.74
2019-04-03T23:34:32.063Z,48.82
2019-04-03T23:37:00.690Z,48.97
2019-04-03T23:39:29.359Z,49.00
2019-04-03T23:41:57.985Z,49.09
2019-04-03T23:44:26.619Z,49.12
2019-04-03T23:46:55.358Z,49.04
2019-04-03T23:49:23.983Z,49.31
2019-04-03T23:51:52.616Z,49.28
2019-04-03T23:54:21.242Z,49.45
2019-04-03T23:56:49.871Z,49.60
2019-04-03T23:59:18.674Z,49.62
